createdAt,value
2019-04-06T00:00:47.284Z,47.10
2019-04-06T00:03:15.438Z,46.90
2019-04-06T00:05:43.654Z,45.67
2019-04-06T00:08:11.714Z,48.97
2019-04-06T00:10:39.835Z,47.83
2019-04-06T00:13:08.827Z,47.37
2019-04-06T00:15:36.934Z,50.13
2019-04-06T00:18:04.983Z,49.73
2019-04-06T00:20:33.039Z,51.10
2019-04-06T00:23:01.095Z,49.37
2019-04-06T00:25:29.208Z,53.37
2019-04-06T00:27:57.420Z,48.93
2019-04-06T00:30:25.528Z,49.70
2019-04-06T00:33:18.598Z,52.40
2019-04-06T00:35:46.725Z,49.97
2019-04-06T00:38:14.823Z,50.63
2019-04-06T00:40:42.907Z,51.97
2019-04-06T00:43:11.009Z,52.03
2019-04-06T00:45:53.958Z,50.80
2019-04-06T00:48:22.767Z,51.27
2019-04-06T00:50:50.864Z,51.77
2019-04-06T00:53:18.924Z,51.60
2019-04-06T00:58:56.746Z,49.67
2019-04-06T01:01:24.838Z,47.73
2019-04-06T01:03:52.942Z,48.37
2019-04-06T01:06:21.094Z,48.50
2019-04-06T01:08:51.918Z,46.83
2019-04-06T01:11:20.049Z,49.07
2019-04-06T01:13:48.150Z,47.93
2019-04-06T01:16:16.253Z,49.37
2019-04-06T01:18:44.342Z,49.60
2019-04-06T01:21:12.437Z,50.60
2019-04-06T01:23:40.812Z,48.97
2019-04-06T01:26:08.936Z,50.13
2019-04-06T01:28:37.062Z,49.77
2019-04-06T01:31:05.154Z,49.10
2019-04-06T01:33:33.223Z,49.23
2019-04-06T01:36:01.302Z,48.80
2019-04-06T01:38:29.490Z,49.07
2019-04-06T01:41:00.036Z,48.83
2019-04-06T01:43:28.746Z,48.50
2019-04-06T01:45:56.875Z,48.83
2019-04-06T01:48:24.957Z,49.20
2019-04-06T01:50:53.082Z,50.87
2019-04-06T01:53:21.176Z,50.03
2019-04-06T01:55:49.245Z,50.00
2019-04-06T01:58:17.357Z,49.93
2019-04-06T02:00:59.047Z,49.30
2019-04-06T02:03:27.181Z,49.30
2019-04-06T02:05:55.263Z,49.93
2019-04-06T02:08:23.371Z,48.20
2019-04-06T02:10:51.478Z,48.20
2019-04-06T02:13:19.571Z,49.07
2019-04-06T02:15:48.495Z,49.83
2019-04-06T02:18:16.638Z,48.60
2019-04-06T02:20:44.845Z,49.83
2019-04-06T02:23:12.896Z,47.87
2019-04-06T02:25:40.985Z,49.03
2019-04-06T02:28:09.135Z,47.77
2019-04-06T02:30:42.102Z,48.00
2019-04-06T02:33:26.468Z,47.47
2019-04-06T02:36:31.606Z,48.17
2019-04-06T02:39:08.510Z,46.77
2019-04-06T02:42:13.955Z,48.27
2019-04-06T02:44:42.000Z,46.80
2019-04-06T02:47:10.156Z,47.50
2019-04-06T02:49:38.263Z,46.30
2019-04-06T02:52:06.625Z,48.47
2019-04-06T02:54:34.768Z,47.10
2019-04-06T02:57:03.085Z,46.63
2019-04-06T02:59:31.269Z,46.77
2019-04-06T03:01:59.423Z,48.33
2019-04-06T03:07:36.689Z,48.27
2019-04-06T03:10:05.984Z,46.47
2019-04-06T03:12:34.207Z,47.67
2019-04-06T03:15:02.576Z,49.57
2019-04-06T03:17:30.606Z,48.83
2019-04-06T03:19:58.683Z,45.53
2019-04-06T03:22:26.801Z,48.37
2019-04-06T03:24:54.932Z,50.33
2019-04-06T03:27:23.249Z,49.83
2019-04-06T03:29:58.355Z,48.80
2019-04-06T03:32:21.581Z,47.23
2019-04-06T03:34:50.083Z,44.80
2019-04-06T03:37:18.272Z,46.70
2019-04-06T03:39:46.439Z,47.27
2019-04-06T03:42:14.888Z,45.87
2019-04-06T03:44:42.987Z,49.17
2019-04-06T03:47:11.085Z,47.67
2019-04-06T03:49:39.159Z,47.17
2019-04-06T03:52:07.221Z,47.57
2019-04-06T03:54:35.282Z,49.33
2019-04-06T03:57:15.225Z,47.80
2019-04-06T03:59:33.065Z,48.47
2019-04-06T04:02:01.084Z,45.10
2019-04-06T04:04:29.142Z,47.90
2019-04-06T04:06:57.182Z,47.87
2019-04-06T04:09:25.226Z,47.50
2019-04-06T04:11:53.803Z,46.77
2019-04-06T04:14:21.885Z,48.23
2019-04-06T04:16:49.989Z,47.23
2019-04-06T04:19:18.082Z,46.53
2019-04-06T04:21:46.116Z,46.60
2019-04-06T04:24:14.533Z,46.20
2019-04-06T04:26:42.581Z,46.57
2019-04-06T04:29:10.707Z,46.50
2019-04-06T04:31:38.755Z,47.50
2019-04-06T04:34:07.023Z,47.43
2019-04-06T04:36:35.103Z,46.90
2019-04-06T04:39:04.191Z,47.33
2019-04-06T04:41:34.653Z,49.27
2019-04-06T04:44:02.717Z,49.10
2019-04-06T04:46:30.768Z,49.80
2019-04-06T04:48:58.837Z,49.83
2019-04-06T04:51:26.906Z,49.97
2019-04-06T04:53:54.949Z,50.50
2019-04-06T04:56:23.030Z,48.70
2019-04-06T04:58:51.073Z,48.97
2019-04-06T05:01:19.136Z,48.97
2019-04-06T05:03:47.173Z,50.30
2019-04-06T05:06:15.290Z,49.57
2019-04-06T05:09:34.670Z,51.23
2019-04-06T05:12:02.871Z,49.13
2019-04-06T05:14:49.744Z,51.53
2019-04-06T05:17:17.802Z,53.00
2019-04-06T05:19:45.892Z,51.00
2019-04-06T05:22:15.180Z,52.00
2019-04-06T05:24:43.949Z,51.93
2019-04-06T05:27:12.059Z,53.73
2019-04-06T05:29:40.107Z,54.40
2019-04-06T05:32:08.295Z,53.80
2019-04-06T05:34:36.352Z,53.00
2019-04-06T05:37:04.442Z,55.10
2019-04-06T05:39:32.471Z,55.20
2019-04-06T05:42:00.504Z,54.87
2019-04-06T05:44:28.635Z,59.40
2019-04-06T05:46:56.668Z,57.87
2019-04-06T05:49:25.254Z,57.10
2019-04-06T05:51:53.335Z,59.47
2019-04-06T05:54:21.305Z,64.37
2019-04-06T05:56:49.429Z,62.40
2019-04-06T05:59:17.412Z,67.10
2019-04-06T06:01:48.123Z,66.00
2019-04-06T06:04:15.199Z,63.93
2019-04-06T06:06:43.270Z,67.27
2019-04-06T06:09:11.346Z,67.40
2019-04-06T06:11:39.587Z,64.93
2019-04-06T06:14:07.682Z,67.97
2019-04-06T06:16:35.854Z,67.10
2019-04-06T06:19:04.184Z,68.57
2019-04-06T06:21:32.273Z,67.17
2019-04-06T06:24:00.348Z,69.77
2019-04-06T06:26:29.437Z,71.87
2019-04-06T06:28:57.494Z,70.47
2019-04-06T06:31:25.559Z,71.33
2019-04-06T06:33:53.654Z,70.83
2019-04-06T06:36:21.699Z,71.87
2019-04-06T06:38:50.470Z,72.37
2019-04-06T06:41:18.554Z,72.60
2019-04-06T06:43:46.914Z,71.33
2019-04-06T06:46:15.019Z,69.93
2019-04-06T06:48:43.406Z,74.93
2019-04-06T06:51:11.561Z,71.27
2019-04-06T06:53:39.736Z,70.03
2019-04-06T06:56:08.129Z,73.63
2019-04-06T06:58:37.024Z,72.57
2019-04-06T07:01:05.296Z,73.17
2019-04-06T07:03:33.344Z,74.40
2019-04-06T07:06:02.225Z,73.17
2019-04-06T07:08:30.430Z,77.40
2019-04-06T07:10:58.498Z,72.97
2019-04-06T07:13:26.601Z,73.50
2019-04-06T07:15:54.975Z,73.60
2019-04-06T07:18:23.070Z,73.10
2019-04-06T07:20:51.350Z,72.40
2019-04-06T07:23:20.223Z,71.80
2019-04-06T07:25:57.350Z,74.47
2019-04-06T07:28:18.124Z,73.20
2019-04-06T07:30:46.163Z,75.43
2019-04-06T07:33:14.286Z,74.60
2019-04-06T07:35:42.433Z,73.23
2019-04-06T07:38:10.795Z,71.87
2019-04-06T07:40:39.880Z,72.77
2019-04-06T07:43:08.431Z,71.60
2019-04-06T07:45:43.278Z,71.10
2019-04-06T07:48:11.366Z,70.63
2019-04-06T07:50:39.729Z,70.03
2019-04-06T07:53:08.615Z,70.03
2019-04-06T07:55:37.041Z,64.30
2019-04-06T07:58:05.277Z,68.47
2019-04-06T08:00:33.454Z,65.30
2019-04-06T08:03:01.562Z,65.03
2019-04-06T08:05:29.951Z,65.20
2019-04-06T08:07:58.184Z,61.90
2019-04-06T08:10:26.349Z,62.93
2019-04-06T08:12:54.532Z,60.87
2019-04-06T08:15:22.613Z,62.07
2019-04-06T08:17:50.712Z,61.10
2019-04-06T08:20:20.338Z,61.57
2019-04-06T08:22:48.457Z,61.30
2019-04-06T08:25:17.593Z,59.00
2019-04-06T08:27:45.671Z,58.97
2019-04-06T08:30:14.384Z,58.73
2019-04-06T08:32:42.481Z,58.47
2019-04-06T08:35:10.681Z,57.03
2019-04-06T08:37:38.909Z,59.87
2019-04-06T08:40:07.805Z,59.10
2019-04-06T08:42:35.874Z,57.87
2019-04-06T08:45:04.196Z,59.23
2019-04-06T08:47:32.296Z,58.00
2019-04-06T08:50:00.669Z,59.17
2019-04-06T08:52:28.755Z,59.03
2019-04-06T08:54:57.027Z,57.13
2019-04-06T08:57:25.087Z,57.27
2019-04-06T08:59:53.593Z,60.27
2019-04-06T09:02:21.932Z,58.77
2019-04-06T09:04:50.024Z,57.20
2019-04-06T09:07:18.079Z,56.70
2019-04-06T09:09:46.468Z,55.57
2019-04-06T09:12:14.871Z,54.80
2019-04-06T09:14:43.303Z,55.20
2019-04-06T09:17:11.376Z,53.57
2019-04-06T09:19:39.453Z,56.10
2019-04-06T09:22:07.552Z,55.80
2019-04-06T09:24:36.285Z,55.13
2019-04-06T09:27:04.925Z,59.23
2019-04-06T09:29:34.410Z,55.57
2019-04-06T09:32:03.829Z,56.10
2019-04-06T09:34:34.946Z,54.20
2019-04-06T09:37:03.923Z,54.40
2019-04-06T09:39:32.799Z,52.50
2019-04-06T09:42:00.974Z,55.13
2019-04-06T09:44:47.924Z,55.00
2019-04-06T09:47:28.256Z,51.57
2019-04-06T09:50:17.758Z,55.97
2019-04-06T09:53:24.153Z,53.20
2019-04-06T09:56:17.189Z,55.17
2019-04-06T09:59:04.269Z,53.77
2019-04-06T10:01:59.380Z,53.53
2019-04-06T10:04:36.573Z,51.03
2019-04-06T10:07:23.663Z,54.13
2019-04-06T10:10:10.727Z,52.37
2019-04-06T10:12:49.048Z,49.00
2019-04-06T10:15:33.955Z,50.00
2019-04-06T10:18:11.512Z,48.67
2019-04-06T10:20:59.229Z,49.37
2019-04-06T10:23:55.947Z,48.10
2019-04-06T10:26:39.215Z,45.93
2019-04-06T10:29:16.607Z,49.07
2019-04-06T10:31:56.382Z,47.20
2019-04-06T10:34:58.613Z,47.33
2019-04-06T10:37:48.857Z,47.40
2019-04-06T10:40:38.950Z,44.13
2019-04-06T10:43:41.138Z,44.17
2019-04-06T10:46:40.297Z,45.10
2019-04-06T10:49:22.873Z,43.47
2019-04-06T10:52:02.456Z,40.23
2019-04-06T10:54:52.397Z,40.60
2019-04-06T10:57:32.564Z,36.40
2019-04-06T11:00:25.477Z,34.20
2019-04-06T11:03:11.465Z,32.87
2019-04-06T11:05:52.304Z,33.97
2019-04-06T11:08:54.714Z,36.47
2019-04-06T11:11:48.471Z,38.77
2019-04-06T11:14:53.898Z,38.17
2019-04-06T11:17:39.762Z,36.90
2019-04-06T11:20:27.679Z,37.20
2019-04-06T11:23:27.135Z,37.73
2019-04-06T11:26:20.477Z,36.33
2019-04-06T11:28:58.587Z,39.77
2019-04-06T11:31:42.538Z,36.33
2019-04-06T11:34:35.396Z,37.13
2019-04-06T11:37:14.029Z,36.00
2019-04-06T11:39:53.140Z,36.13
2019-04-06T11:42:31.632Z,34.90
2019-04-06T11:45:17.745Z,36.33
2019-04-06T11:48:03.844Z,34.73
2019-04-06T11:50:44.819Z,35.70
2019-04-06T11:53:37.726Z,34.03
2019-04-06T11:56:11.968Z,33.57
2019-04-06T11:58:48.325Z,33.53
2019-04-06T12:01:44.818Z,33.10
2019-04-06T12:04:35.121Z,28.87
2019-04-06T12:07:18.218Z,29.50
2019-04-06T12:10:23.915Z,30.37
2019-04-06T12:13:22.897Z,28.87
2019-04-06T12:15:57.935Z,26.70
2019-04-06T12:18:48.145Z,27.50
2019-04-06T12:21:32.900Z,26.60
2019-04-06T12:24:18.199Z,26.67
2019-04-06T12:27:04.056Z,26.67
2019-04-06T12:29:47.463Z,25.50
2019-04-06T12:32:37.875Z,28.00
2019-04-06T12:35:26.031Z,27.80
2019-04-06T12:38:11.321Z,26.43
2019-04-06T12:41:01.113Z,26.00
2019-04-06T12:43:48.191Z,25.07
2019-04-06T12:46:53.977Z,24.57
2019-04-06T12:49:56.139Z,24.27
2019-04-06T12:52:43.518Z,25.03
2019-04-06T12:55:30.641Z,27.37
2019-04-06T12:58:29.624Z,27.07
2019-04-06T13:01:16.868Z,28.07
2019-04-06T13:04:02.756Z,28.03
2019-04-06T13:06:48.804Z,27.10
2019-04-06T13:09:35.979Z,25.07
2019-04-06T13:12:26.331Z,25.07
2019-04-06T13:15:08.919Z,23.93
2019-04-06T13:17:59.703Z,23.40
2019-04-06T13:20:57.967Z,23.10
2019-04-06T13:23:45.163Z,24.80
2019-04-06T13:26:34.984Z,25.23
2019-04-06T13:29:31.087Z,23.73
2019-04-06T13:32:27.557Z,21.10
2019-04-06T13:35:02.642Z,18.40
2019-04-06T13:41:02.919Z,20.07
2019-04-06T13:43:50.240Z,20.27
2019-04-06T13:46:40.873Z,22.50
2019-04-06T13:49:27.218Z,21.90
2019-04-06T13:52:29.726Z,22.07
2019-04-06T13:55:21.102Z,21.17
2019-04-06T13:57:56.796Z,18.30
2019-04-06T14:00:42.764Z,18.60
2019-04-06T14:03:36.008Z,19.27
2019-04-06T14:06:30.221Z,19.07
2019-04-06T14:09:26.747Z,20.03
2019-04-06T14:12:00.630Z,20.07
2019-04-06T14:14:53.802Z,19.47
2019-04-06T14:17:39.451Z,18.90
2019-04-06T14:20:23.994Z,19.17
2019-04-06T14:23:01.995Z,17.53
2019-04-06T14:26:13.038Z,17.77
2019-04-06T14:28:53.429Z,16.93
2019-04-06T14:31:30.822Z,18.17
2019-04-06T14:34:21.664Z,18.13
2019-04-06T14:37:08.702Z,17.60
2019-04-06T14:39:56.077Z,17.83
2019-04-06T14:45:31.286Z,17.03
2019-04-06T14:48:15.400Z,16.80
2019-04-06T14:51:06.575Z,15.07
2019-04-06T14:53:50.761Z,13.97
2019-04-06T14:56:37.826Z,14.20
2019-04-06T14:59:29.408Z,15.20
2019-04-06T15:02:19.389Z,14.63
2019-04-06T15:05:09.687Z,13.20
2019-04-06T15:08:05.678Z,13.13
2019-04-06T15:14:14.277Z,13.47
2019-04-06T15:16:52.728Z,13.47
2019-04-06T15:19:45.805Z,11.87
2019-04-06T15:22:39.002Z,12.93
2019-04-06T15:25:19.228Z,12.70
2019-04-06T15:28:06.413Z,12.67
2019-04-06T15:30:59.302Z,13.60
2019-04-06T15:36:41.250Z,15.67
2019-04-06T15:39:40.560Z,18.57
2019-04-06T15:42:36.583Z,21.33
2019-04-06T15:45:22.715Z,23.67
2019-04-06T15:48:19.712Z,25.13
2019-04-06T15:50:55.851Z,25.67
2019-04-06T15:53:39.855Z,25.43
2019-04-06T15:56:27.393Z,27.63
2019-04-06T15:59:11.310Z,27.63
2019-04-06T16:04:56.951Z,27.37
2019-04-06T16:07:43.301Z,25.03
2019-04-06T16:10:28.324Z,26.67
2019-04-06T16:13:06.976Z,25.00
2019-04-06T16:16:26.313Z,27.10
2019-04-06T16:19:13.394Z,25.27
2019-04-06T16:25:01.168Z,26.80
2019-04-06T16:31:04.181Z,25.50
2019-04-06T16:33:50.526Z,25.37
2019-04-06T16:36:25.395Z,24.53
2019-04-06T16:39:44.750Z,25.43
2019-04-06T16:42:30.744Z,23.73
2019-04-06T16:45:11.696Z,25.57
2019-04-06T16:47:58.141Z,25.97
2019-04-06T16:50:54.255Z,25.63
2019-04-06T16:53:40.563Z,26.13
2019-04-06T16:56:18.445Z,25.43
2019-04-06T16:59:05.931Z,27.73
2019-04-06T17:04:23.421Z,26.17
2019-04-06T17:07:22.608Z,25.60
2019-04-06T17:10:12.750Z,26.20
2019-04-06T17:12:58.637Z,26.43
2019-04-06T17:15:54.981Z,25.47
2019-04-06T17:18:44.906Z,25.97
2019-04-06T17:21:37.826Z,25.40
2019-04-06T17:24:17.636Z,24.77
2019-04-06T17:27:06.916Z,27.13
2019-04-06T17:30:00.094Z,26.73
2019-04-06T17:32:57.653Z,26.27
2019-04-06T17:35:34.660Z,25.03
2019-04-06T17:38:30.585Z,27.73
2019-04-06T17:41:21.843Z,27.20
2019-04-06T17:44:15.413Z,25.63
2019-04-06T17:47:14.387Z,28.30
2019-04-06T17:50:07.524Z,26.70
2019-04-06T17:53:13.553Z,26.90
2019-04-06T17:56:05.684Z,29.03
2019-04-06T17:58:41.886Z,31.77
2019-04-06T18:01:29.014Z,32.03
2019-04-06T18:04:16.114Z,33.03
2019-04-06T18:07:05.357Z,27.60
2019-04-06T18:09:41.156Z,28.50
2019-04-06T18:12:19.602Z,28.27
2019-04-06T18:14:47.763Z,30.10
2019-04-06T18:17:15.865Z,28.40
2019-04-06T18:19:44.822Z,26.03
2019-04-06T18:22:13.476Z,29.87
2019-04-06T18:24:44.145Z,30.83
2019-04-06T18:27:12.855Z,30.20
2019-04-06T18:29:41.748Z,30.43
2019-04-06T18:32:38.375Z,31.13
2019-04-06T18:35:07.509Z,29.60
2019-04-06T18:37:38.980Z,29.87
2019-04-06T18:40:27.298Z,28.80
2019-04-06T18:42:55.416Z,29.30
2019-04-06T18:45:23.543Z,29.93
2019-04-06T18:47:51.961Z,29.40
2019-04-06T18:50:35.929Z,30.33
2019-04-06T18:56:11.853Z,30.83
2019-04-06T19:01:48.927Z,32.77
2019-04-06T19:04:18.199Z,32.47
2019-04-06T19:06:50.686Z,32.40
2019-04-06T19:09:23.027Z,31.93
2019-04-06T19:11:55.555Z,31.97
2019-04-06T19:14:40.684Z,32.37
2019-04-06T19:17:08.885Z,32.77
2019-04-06T19:19:53.858Z,33.10
2019-04-06T19:22:46.117Z,33.87
2019-04-06T19:25:28.335Z,33.43
2019-04-06T19:27:48.932Z,33.37
2019-04-06T19:30:50.947Z,32.40
2019-04-06T19:33:25.163Z,32.90
2019-04-06T19:35:49.435Z,34.73
2019-04-06T19:38:17.887Z,35.53
2019-04-06T19:40:47.223Z,34.47
2019-04-06T19:43:18.919Z,32.93
2019-04-06T19:45:47.456Z,36.27
2019-04-06T19:48:15.966Z,36.80
2019-04-06T19:50:44.142Z,35.53
2019-04-06T19:53:12.421Z,34.83
2019-04-06T19:55:41.035Z,34.20
2019-04-06T19:58:09.345Z,34.40
2019-04-06T20:00:37.448Z,34.37
2019-04-06T20:03:05.702Z,34.83
2019-04-06T20:05:35.000Z,34.70
2019-04-06T20:11:25.569Z,35.50
2019-04-06T20:13:56.222Z,33.00
2019-04-06T20:16:24.534Z,35.03
2019-04-06T20:18:52.643Z,34.67
2019-04-06T20:21:20.980Z,35.20
2019-04-06T20:23:49.565Z,33.27
2019-04-06T20:26:18.419Z,33.43
2019-04-06T20:28:46.916Z,35.03
2019-04-06T20:31:14.962Z,34.50
2019-04-06T20:33:50.287Z,35.13
2019-04-06T20:36:13.095Z,34.93
2019-04-06T20:38:42.401Z,35.77
2019-04-06T20:41:10.937Z,34.87
2019-04-06T20:43:39.488Z,34.20
2019-04-06T20:46:07.929Z,35.93
2019-04-06T20:48:36.834Z,34.67
2019-04-06T20:54:14.571Z,36.13
2019-04-06T20:56:53.078Z,37.73
2019-04-06T20:59:12.912Z,36.43
2019-04-06T21:01:41.674Z,36.33
2019-04-06T21:04:10.381Z,36.13
2019-04-06T21:06:39.132Z,39.23
2019-04-06T21:09:10.135Z,37.67
2019-04-06T21:11:39.280Z,37.20
2019-04-06T21:14:07.921Z,37.97
2019-04-06T21:16:36.519Z,37.37
2019-04-06T21:19:04.805Z,37.67
2019-04-06T21:21:33.698Z,36.07
2019-04-06T21:24:02.083Z,38.17
2019-04-06T21:26:30.451Z,36.43
2019-04-06T21:28:58.529Z,34.90
2019-04-06T21:31:27.429Z,36.83
2019-04-06T21:33:56.017Z,36.37
2019-04-06T21:36:24.378Z,38.67
2019-04-06T21:38:52.447Z,37.87
2019-04-06T21:41:20.993Z,36.43
2019-04-06T21:43:49.512Z,36.80
2019-04-06T21:46:17.872Z,37.67
2019-04-06T21:48:45.939Z,37.57
2019-04-06T21:51:35.613Z,36.90
2019-04-06T21:54:04.071Z,39.30
2019-04-06T21:56:33.234Z,36.93
2019-04-06T21:59:01.623Z,38.93
2019-04-06T22:01:29.896Z,37.90
2019-04-06T22:03:57.927Z,36.43
2019-04-06T22:06:26.407Z,37.27
2019-04-06T22:08:55.102Z,37.63
2019-04-06T22:11:23.182Z,36.50
2019-04-06T22:13:52.588Z,37.80
2019-04-06T22:16:20.644Z,36.20
2019-04-06T22:18:48.831Z,39.47
2019-04-06T22:21:16.806Z,36.60
2019-04-06T22:23:46.096Z,36.77
2019-04-06T22:26:15.011Z,38.27
2019-04-06T22:28:43.098Z,35.80
2019-04-06T22:31:11.289Z,37.10
2019-04-06T22:33:39.892Z,35.97
2019-04-06T22:36:08.002Z,36.27
2019-04-06T22:38:36.568Z,33.80
2019-04-06T22:41:04.759Z,38.20
2019-04-06T22:43:33.436Z,37.20
2019-04-06T22:46:01.630Z,34.13
2019-04-06T22:48:29.820Z,36.30
2019-04-06T22:50:57.884Z,35.67
2019-04-06T22:53:25.990Z,36.80
2019-04-06T22:55:54.046Z,37.27
2019-04-06T22:58:22.610Z,36.90
2019-04-06T23:00:56.781Z,36.83
2019-04-06T23:03:55.041Z,38.07
2019-04-06T23:06:31.179Z,36.37
2019-04-06T23:08:59.545Z,36.83
2019-04-06T23:11:27.901Z,36.83
2019-04-06T23:13:56.327Z,36.77
2019-04-06T23:16:24.332Z,35.80
2019-04-06T23:18:52.398Z,36.43
2019-04-06T23:21:21.383Z,36.33
2019-04-06T23:23:50.208Z,36.87
2019-04-06T23:26:18.788Z,36.53
2019-04-06T23:28:47.330Z,36.37
2019-04-06T23:31:15.475Z,37.93
2019-04-06T23:33:43.601Z,35.10
2019-04-06T23:36:12.120Z,37.40
2019-04-06T23:38:40.462Z,38.43
2019-04-06T23:41:08.669Z,38.03
2019-04-06T23:43:37.313Z,36.97
2019-04-06T23:46:05.335Z,37.80
2019-04-06T23:48:33.638Z,38.20
2019-04-06T23:51:01.958Z,38.70
2019-04-06T23:53:30.457Z,39.83
2019-04-06T23:55:58.853Z,39.43
2019-04-06T23:58:26.899Z,38.13
